Time;durP1;ratioP1;P1;durP2;ratioP2;P2;SDS_P1;SDS_P2;PMS_P1;PMS_P2;Temp;Humidity;BMP_temperature;BMP_pressure;BME280_temperature;BME280_humidity;BME280_pressure;Samples;Min_cycle;Max_cycle;Signal;HPM_P1;HPM_P2
2021/10/26 00:02:18;;;;;;;11.10;6.83;;;;;;;12.60;61.29;97049.94;5070444;28;20170;-66
2021/10/26 00:04:44;;;;;;;10.70;7.07;;;;;;;12.56;61.38;97053.88;5068995;28;20189;-65
2021/10/26 00:07:10;;;;;;;9.20;6.07;;;;;;;12.54;61.50;97046.16;5070028;28;20185;-66
2021/10/26 00:09:35;;;;;;;11.17;6.77;;;;;;;12.55;61.76;97045.16;5074148;28;20212;-66
2021/10/26 00:12:02;;;;;;;9.77;6.90;;;;;;;12.60;61.49;97047.31;5072753;28;20659;-66
2021/10/26 00:14:27;;;;;;;10.13;6.90;;;;;;;12.62;61.60;97042.69;5074021;28;20185;-64
2021/10/26 00:16:54;;;;;;;8.20;6.60;;;;;;;12.60;61.73;97040.22;5068869;28;20437;-67
2021/10/26 00:19:20;;;;;;;16.33;6.67;;;;;;;12.60;61.28;97045.50;5066135;28;20198;-67
2021/10/26 00:21:46;;;;;;;9.60;7.43;;;;;;;12.54;61.88;97042.72;5066256;28;20467;-65
2021/10/26 00:24:11;;;;;;;11.53;8.00;;;;;;;12.38;62.48;97046.22;5072606;28;20775;-64
2021/10/26 00:26:37;;;;;;;10.20;8.23;;;;;;;12.43;62.47;97046.50;5055667;28;20206;-66
2021/10/26 00:29:02;;;;;;;10.80;7.80;;;;;;;12.47;62.40;97050.44;5066834;28;20353;-66
2021/10/26 00:31:29;;;;;;;10.23;7.90;;;;;;;12.49;62.55;97052.91;5033324;28;20182;-66
2021/10/26 00:33:55;;;;;;;10.47;8.10;;;;;;;12.44;62.57;97062.13;5070223;28;20202;-66
2021/10/26 00:36:21;;;;;;;11.30;8.43;;;;;;;12.56;62.37;97059.13;5058159;28;20821;-66
2021/10/26 00:38:47;;;;;;;13.00;7.90;;;;;;;12.49;62.31;97064.25;5055612;28;20409;-67
2021/10/26 00:41:13;;;;;;;9.40;7.80;;;;;;;12.60;62.34;97060.47;5072313;28;20824;-66
2021/10/26 00:43:39;;;;;;;9.90;7.93;;;;;;;12.61;61.86;97062.06;5074011;28;20419;-66
2021/10/26 00:46:05;;;;;;;10.90;7.70;;;;;;;12.60;62.14;97060.47;5055936;28;20506;-66
2021/10/26 00:48:31;;;;;;;10.63;8.20;;;;;;;12.67;61.89;97052.69;5073340;28;20429;-65
2021/10/26 00:50:57;;;;;;;10.97;8.27;;;;;;;12.60;62.07;97063.09;5075504;28;20198;-67
2021/10/26 00:53:23;;;;;;;12.53;7.33;;;;;;;12.61;61.91;97059.44;5074202;28;20209;-66
2021/10/26 00:55:49;;;;;;;13.13;7.07;;;;;;;12.69;61.54;97058.59;5074582;28;20424;-67
2021/10/26 00:58:16;;;;;;;10.53;7.53;;;;;;;12.73;61.52;97060.72;5071376;28;20189;-65
2021/10/26 01:00:43;;;;;;;9.33;7.50;;;;;;;12.75;61.36;97055.31;5055215;28;20892;-65
2021/10/26 01:03:08;;;;;;;11.30;7.87;;;;;;;12.67;61.60;97060.56;5072085;28;20463;-66
2021/10/26 01:05:34;;;;;;;12.23;7.33;;;;;;;12.52;62.56;97065.72;5072835;28;20428;-66
2021/10/26 01:08:00;;;;;;;10.43;6.97;;;;;;;12.59;62.37;97061.44;5071559;28;20186;-67
2021/10/26 01:10:26;;;;;;;10.37;7.60;;;;;;;12.66;62.09;97056.34;5072177;28;20234;-66
2021/10/26 01:12:52;;;;;;;10.27;7.90;;;;;;;12.29;63.92;97061.16;5072866;28;20495;-66
2021/10/26 01:15:17;;;;;;;10.37;8.07;;;;;;;12.31;64.05;97055.72;5055248;28;20186;-66
2021/10/26 01:17:43;;;;;;;9.90;8.70;;;;;;;12.43;63.54;97060.47;5066985;28;20242;-66
2021/10/26 01:20:09;;;;;;;9.97;7.80;;;;;;;12.34;63.93;97064.13;5072129;28;20633;-66
2021/10/26 01:22:39;;;;;;;15.97;8.33;;;;;;;12.38;64.01;97067.22;5058189;28;20521;-66
2021/10/26 01:25:10;;;;;;;14.13;8.73;;;;;;;12.27;64.45;97063.13;5071073;28;20451;-66
2021/10/26 01:27:39;;;;;;;11.63;8.67;;;;;;;12.32;64.18;97065.25;5072582;28;20471;-66
2021/10/26 01:30:06;;;;;;;11.33;8.23;;;;;;;12.21;64.51;97066.44;5063280;28;20441;-66
2021/10/26 01:32:32;;;;;;;17.93;9.13;;;;;;;12.38;64.47;97067.22;5073059;28;20456;-65
2021/10/26 01:34:58;;;;;;;15.33;9.03;;;;;;;12.22;64.83;97073.34;5070363;28;20440;-65
2021/10/26 01:37:24;;;;;;;12.57;8.73;;;;;;;12.25;64.90;97073.81;5072482;28;20544;-66
2021/10/26 01:39:50;;;;;;;16.20;8.30;;;;;;;12.51;63.96;97067.53;5072359;28;20202;-66
2021/10/26 01:42:15;;;;;;;12.40;9.03;;;;;;;12.41;64.22;97078.22;5071701;28;20420;-65
2021/10/26 01:44:41;;;;;;;12.17;8.97;;;;;;;12.46;64.20;97079.53;5071277;28;20428;-66
2021/10/26 01:47:07;;;;;;;11.47;7.80;;;;;;;12.41;64.39;97080.84;5069720;28;20180;-65
2021/10/26 01:49:32;;;;;;;11.00;8.87;;;;;;;12.34;64.98;97079.91;5072709;28;20903;-66
2021/10/26 01:51:58;;;;;;;14.67;9.37;;;;;;;12.04;65.92;97084.00;5071267;28;20200;-67
2021/10/26 01:54:24;;;;;;;16.90;9.20;;;;;;;12.21;65.79;97085.63;5070890;28;20178;-66
2021/10/26 01:56:50;;;;;;;11.90;9.03;;;;;;;11.86;67.37;97092.00;5071315;28;20193;-66
2021/10/26 01:59:15;;;;;;;12.63;9.00;;;;;;;11.91;67.30;97092.34;5072729;28;20614;-66
2021/10/26 02:01:41;;;;;;;14.27;8.53;;;;;;;12.13;66.71;97091.72;5055417;28;20179;-67
2021/10/26 02:04:07;;;;;;;11.13;8.53;;;;;;;12.38;66.51;97086.44;5072737;28;20201;-66
2021/10/26 02:06:33;;;;;;;14.10;8.67;;;;;;;12.26;67.32;97090.38;5066430;28;20183;-66
2021/10/26 02:08:59;;;;;;;14.70;9.37;;;;;;;12.25;67.75;97094.00;5069958;28;20602;-67
2021/10/26 02:11:25;;;;;;;12.57;9.90;;;;;;;12.29;67.58;97090.88;5072466;28;20441;-67
2021/10/26 02:13:51;;;;;;;12.63;8.80;;;;;;;12.43;67.20;97092.03;5071346;28;20543;-64
2021/10/26 02:16:18;;;;;;;12.33;9.00;;;;;;;12.46;67.29;97090.88;5056498;28;20504;-66
2021/10/26 02:18:44;;;;;;;12.30;9.33;;;;;;;12.35;67.77;97089.38;5066209;28;20206;-65
2021/10/26 02:21:10;;;;;;;12.70;9.20;;;;;;;12.38;67.86;97091.69;5070212;28;20428;-65
2021/10/26 02:23:35;;;;;;;25.07;9.70;;;;;;;12.49;68.09;97087.06;5058852;28;20244;-65
2021/10/26 02:26:01;;;;;;;12.27;9.07;;;;;;;12.39;68.43;97095.97;5059572;28;20183;-66
2021/10/26 02:28:28;;;;;;;19.33;11.27;;;;;;;12.20;69.01;97093.69;5072056;28;20182;-66
2021/10/26 02:30:54;;;;;;;38.83;16.33;;;;;;;12.30;69.18;97083.81;5069745;28;20247;-66
2021/10/26 02:33:19;;;;;;;62.87;20.50;;;;;;;12.51;68.42;97083.31;5068241;28;20947;-66
2021/10/26 02:35:46;;;;;;;38.47;17.03;;;;;;;12.63;68.00;97086.38;5069935;28;20273;-66
2021/10/26 02:38:12;;;;;;;41.50;16.00;;;;;;;12.69;67.88;97080.47;5071320;28;20227;-65
2021/10/26 02:40:38;;;;;;;90.60;25.17;;;;;;;12.37;68.60;97090.03;5073699;28;20452;-66
2021/10/26 02:43:03;;;;;;;50.90;18.33;;;;;;;12.26;69.60;97095.66;5072863;28;20486;-66
2021/10/26 02:45:29;;;;;;;98.07;23.83;;;;;;;12.47;68.48;97099.59;5067769;28;20183;-66
2021/10/26 02:47:55;;;;;;;16.10;10.30;;;;;;;12.26;69.39;97096.47;5069571;28;20235;-67
2021/10/26 02:50:21;;;;;;;15.53;9.83;;;;;;;12.38;68.93;97109.28;5071078;28;20205;-66
2021/10/26 02:52:46;;;;;;;15.67;11.30;;;;;;;12.47;68.77;97102.22;5072843;28;20540;-67
2021/10/26 02:55:12;;;;;;;15.53;10.23;;;;;;;12.39;68.92;97103.03;5055177;28;20189;-66
2021/10/26 02:57:38;;;;;;;13.90;10.23;;;;;;;12.37;68.85;97108.44;5049850;28;20187;-66
2021/10/26 03:00:06;;;;;;;17.97;11.60;;;;;;;12.24;69.40;97108.13;5068667;28;20250;-66
2021/10/26 03:02:32;;;;;;;19.77;10.87;;;;;;;12.24;69.87;97108.13;5061919;28;20490;-65
2021/10/26 03:04:58;;;;;;;13.70;10.43;;;;;;;12.39;69.23;97106.47;5040279;28;20429;-66
2021/10/26 03:07:23;;;;;;;18.97;12.20;;;;;;;11.81;70.57;97103.84;5057929;28;20206;-66
2021/10/26 03:09:49;;;;;;;18.20;10.30;;;;;;;12.06;70.48;97106.50;5050141;28;20194;-65
2021/10/26 03:12:14;;;;;;;15.53;10.57;;;;;;;12.17;69.66;97104.53;5051428;28;20180;-63
2021/10/26 03:14:40;;;;;;;16.77;11.17;;;;;;;12.25;69.55;97105.34;5058872;28;20179;-69
2021/10/26 03:17:05;;;;;;;19.20;11.57;;;;;;;12.02;70.46;97110.44;5053011;28;20218;-64
2021/10/26 03:19:31;;;;;;;13.77;10.20;;;;;;;12.44;68.97;97109.44;5055429;28;20209;-67
2021/10/26 03:21:57;;;;;;;17.80;10.87;;;;;;;12.26;69.65;97108.78;5040239;28;20178;-63
2021/10/26 03:24:22;;;;;;;18.20;11.20;;;;;;;12.48;69.07;97116.97;5050887;28;20175;-67
2021/10/26 03:26:48;;;;;;;15.33;11.53;;;;;;;12.55;69.23;97116.13;5050448;28;20665;-66
2021/10/26 03:29:14;;;;;;;15.57;10.87;;;;;;;12.66;68.55;97119.44;5042264;28;20182;-68
2021/10/26 03:31:40;;;;;;;16.90;11.90;;;;;;;12.70;68.44;97111.03;5049250;28;20203;-68
2021/10/26 03:34:05;;;;;;;16.83;10.83;;;;;;;12.77;68.13;97100.66;5053658;28;20209;-66
2021/10/26 03:36:33;;;;;;;16.40;10.50;;;;;;;12.77;68.29;97103.28;5035369;28;20712;-66
2021/10/26 03:38:59;;;;;;;16.30;10.53;;;;;;;12.77;68.13;97111.19;5048138;28;20346;-67
2021/10/26 03:41:24;;;;;;;15.40;10.80;;;;;;;12.78;68.22;97122.50;5050700;28;20852;-66
2021/10/26 03:43:51;;;;;;;11.97;9.87;;;;;;;12.79;67.94;97114.44;5050470;28;20414;-66
2021/10/26 03:46:17;;;;;;;14.33;10.90;;;;;;;12.83;67.95;97112.31;5069456;28;20183;-66
2021/10/26 03:48:43;;;;;;;13.73;10.63;;;;;;;12.85;67.92;97107.72;5060139;28;20476;-67
2021/10/26 03:51:09;;;;;;;16.67;10.23;;;;;;;12.80;67.90;97113.47;5050667;28;20479;-67
2021/10/26 03:53:35;;;;;;;16.37;10.47;;;;;;;12.80;68.22;97112.66;5048709;28;20460;-66
2021/10/26 03:56:01;;;;;;;13.97;10.37;;;;;;;12.71;68.44;97117.09;5050525;28;20458;-65
2021/10/26 03:58:27;;;;;;;13.70;10.23;;;;;;;12.67;68.45;97119.25;5049395;28;20185;-65
2021/10/26 04:00:52;;;;;;;14.17;10.57;;;;;;;12.72;68.24;97126.63;5050271;28;20460;-65
2021/10/26 04:03:18;;;;;;;16.20;10.43;;;;;;;12.65;68.68;97123.84;5050646;28;20754;-65
2021/10/26 04:05:59;;;;;;;19.30;10.60;;;;;;;12.71;68.26;97125.00;5050097;28;20180;-67
2021/10/26 04:08:30;;;;;;;16.00;10.47;;;;;;;12.62;68.56;97124.19;5049305;28;20217;-66
2021/10/26 04:10:58;;;;;;;15.67;10.17;;;;;;;12.64;68.75;97121.41;5049871;28;20463;-67
2021/10/26 04:13:25;;;;;;;19.80;10.20;;;;;;;12.56;69.02;97122.22;5055079;28;20921;-66
2021/10/26 04:15:51;;;;;;;11.80;9.70;;;;;;;12.46;69.11;97126.84;5050085;28;20417;-65
2021/10/26 04:18:17;;;;;;;12.20;10.33;;;;;;;12.54;69.11;97127.63;5050516;28;20438;-65
2021/10/26 04:20:43;;;;;;;14.23;9.33;;;;;;;12.58;68.74;97136.03;5049028;28;20536;-67
2021/10/26 04:23:08;;;;;;;14.13;11.23;;;;;;;12.57;68.61;97134.38;5053415;28;20187;-66
2021/10/26 04:25:34;;;;;;;16.93;11.07;;;;;;;12.57;68.77;97126.50;5043623;28;20190;-65
2021/10/26 04:28:01;;;;;;;15.00;9.80;;;;;;;12.60;68.69;97137.50;5051276;28;20182;-65
2021/10/26 04:30:27;;;;;;;12.77;10.47;;;;;;;12.58;68.09;97136.84;5054390;28;20203;-66
2021/10/26 04:32:52;;;;;;;15.00;9.77;;;;;;;12.47;68.74;97144.28;5058119;28;20452;-66
2021/10/26 04:35:18;;;;;;;14.33;10.03;;;;;;;12.49;68.51;97147.53;5051645;28;20445;-64
2021/10/26 04:37:44;;;;;;;19.30;9.60;;;;;;;12.51;68.50;97140.28;5051005;28;20187;-66
2021/10/26 04:40:10;;;;;;;19.50;10.07;;;;;;;12.51;68.43;97146.41;5050905;28;20214;-66
2021/10/26 04:42:36;;;;;;;14.40;10.30;;;;;;;12.55;68.42;97141.63;5053468;28;20175;-66
2021/10/26 04:45:05;;;;;;;18.87;10.60;;;;;;;12.58;68.39;97157.06;5075830;28;20515;-65
2021/10/26 04:47:31;;;;;;;14.17;10.20;;;;;;;12.62;68.24;97150.47;5069069;28;20444;-65
2021/10/26 04:49:57;;;;;;;15.60;9.70;;;;;;;12.59;68.40;97156.09;5060373;28;20437;-66
2021/10/26 04:52:22;;;;;;;14.87;10.33;;;;;;;12.56;68.77;97149.31;5057343;28;20190;-66
2021/10/26 04:54:48;;;;;;;19.23;11.87;;;;;;;12.58;68.76;97152.63;5052990;28;20179;-66
2021/10/26 04:57:15;;;;;;;20.67;11.13;;;;;;;12.58;68.67;97150.00;5045406;28;20236;-66
2021/10/26 04:59:41;;;;;;;17.77;10.77;;;;;;;12.59;68.50;97151.63;5052840;28;20253;-67
2021/10/26 05:02:07;;;;;;;14.20;10.40;;;;;;;12.60;68.61;97149.84;5053616;28;20862;-66
2021/10/26 05:04:32;;;;;;;16.57;10.00;;;;;;;12.55;68.93;97154.75;5043885;28;20484;-65
2021/10/26 05:06:58;;;;;;;15.60;10.30;;;;;;;12.46;68.99;97153.94;5050419;28;20225;-65
2021/10/26 05:09:24;;;;;;;14.90;10.93;;;;;;;12.42;69.05;97163.97;5051056;28;20199;-65
2021/10/26 05:11:49;;;;;;;17.40;11.30;;;;;;;12.42;69.54;97163.97;5051097;28;20433;-68
2021/10/26 05:14:15;;;;;;;17.43;12.17;;;;;;;12.47;69.52;97155.59;5072403;28;20206;-67
2021/10/26 05:16:43;;;;;;;13.70;10.50;;;;;;;12.48;69.33;97156.41;5069153;28;20179;-67
2021/10/26 05:19:09;;;;;;;17.57;11.60;;;;;;;12.34;69.93;97161.34;5071181;28;20182;-65
2021/10/26 05:21:35;;;;;;;14.90;10.50;;;;;;;12.39;69.32;97158.22;5068183;28;20502;-64
2021/10/26 05:24:01;;;;;;;14.47;10.30;;;;;;;12.48;69.08;97157.22;5070558;28;20961;-67
2021/10/26 05:26:26;;;;;;;14.83;10.50;;;;;;;12.54;69.15;97161.00;5071912;28;20197;-67
2021/10/26 05:28:52;;;;;;;14.43;11.20;;;;;;;12.52;68.97;97162.97;5070854;28;20185;-66
2021/10/26 05:31:18;;;;;;;19.23;11.40;;;;;;;12.47;69.10;97162.66;5071590;28;20198;-64
2021/10/26 05:33:45;;;;;;;16.23;9.80;;;;;;;12.55;68.56;97157.38;5071583;28;20993;-66
2021/10/26 05:36:11;;;;;;;11.97;9.83;;;;;;;12.57;68.35;97160.69;5072407;28;20209;-64
2021/10/26 05:38:37;;;;;;;18.03;11.53;;;;;;;12.54;68.46;97161.81;5072058;28;20431;-67
2021/10/26 05:41:03;;;;;;;15.93;10.97;;;;;;;12.49;69.01;97164.13;5073194;28;20951;-65
2021/10/26 05:43:30;;;;;;;19.60;11.63;;;;;;;12.49;69.31;97179.06;5061868;28;20952;-66
2021/10/26 05:45:55;;;;;;;18.77;10.83;;;;;;;12.48;69.17;97175.63;5077052;28;20431;-64
2021/10/26 05:48:21;;;;;;;18.57;12.97;;;;;;;12.55;69.10;97175.78;5077912;28;20440;-63
2021/10/26 05:50:47;;;;;;;18.37;12.60;;;;;;;12.56;69.13;97182.69;5072184;28;21128;-64
2021/10/26 05:53:13;;;;;;;16.37;11.10;;;;;;;12.53;69.19;97175.97;5070917;28;20222;-64
2021/10/26 05:55:39;;;;;;;21.87;11.47;;;;;;;12.59;68.87;97174.47;5066555;28;20642;-66
2021/10/26 05:58:05;;;;;;;16.67;10.90;;;;;;;12.54;68.82;97179.41;5071538;28;20178;-65
2021/10/26 06:00:31;;;;;;;20.63;10.93;;;;;;;12.47;68.67;97176.63;5074807;28;20452;-65
2021/10/26 06:02:57;;;;;;;16.63;11.17;;;;;;;12.56;68.70;97170.34;5077059;28;20421;-66
2021/10/26 06:05:23;;;;;;;16.80;10.70;;;;;;;12.39;69.09;97181.88;5077637;28;20420;-66
2021/10/26 06:07:49;;;;;;;13.70;10.77;;;;;;;12.31;69.50;97181.88;5059616;28;20435;-65
2021/10/26 06:10:16;;;;;;;15.87;11.47;;;;;;;12.38;69.50;97188.13;5048784;28;20228;-65
2021/10/26 06:12:49;;;;;;;16.60;11.73;;;;;;;12.35;68.91;97188.44;5039125;28;20992;-67
2021/10/26 06:15:15;;;;;;;17.40;11.03;;;;;;;12.39;68.80;97190.56;5057128;28;20951;-66
2021/10/26 06:17:40;;;;;;;31.83;11.87;;;;;;;12.38;68.75;97188.94;5065562;28;20412;-68
2021/10/26 06:20:06;;;;;;;21.53;12.00;;;;;;;12.39;69.20;97195.03;5037800;28;20668;-66
2021/10/26 06:22:32;;;;;;;18.10;12.03;;;;;;;12.22;69.45;97195.00;5064959;28;20174;-63
2021/10/26 06:24:57;;;;;;;28.00;12.50;;;;;;;12.35;69.02;97204.22;5072182;28;20424;-64
2021/10/26 06:27:24;;;;;;;18.40;11.90;;;;;;;12.39;69.09;97205.53;5071255;28;20182;-65
2021/10/26 06:29:50;;;;;;;23.53;12.00;;;;;;;12.14;70.12;97198.44;5060675;28;20543;-67
2021/10/26 06:32:16;;;;;;;18.80;13.00;;;;;;;12.36;69.27;97204.03;5069874;28;20423;-65
2021/10/26 06:34:53;;;;;;;19.50;12.80;;;;;;;12.34;69.93;97211.28;5072763;28;20767;-66
2021/10/26 06:37:25;;;;;;;18.03;12.70;;;;;;;12.35;69.47;97219.97;5054208;28;20550;-66
2021/10/26 06:39:54;;;;;;;18.37;12.80;;;;;;;12.27;69.77;97220.78;5060714;28;20444;-67
2021/10/26 06:42:20;;;;;;;18.10;12.50;;;;;;;12.46;69.22;97226.72;5033207;28;20801;-65
2021/10/26 06:44:45;;;;;;;16.53;12.20;;;;;;;12.61;68.64;97225.06;5063087;28;20428;-67
2021/10/26 06:47:11;;;;;;;15.30;11.50;;;;;;;12.68;68.58;97233.97;5071268;28;20554;-66
2021/10/26 06:49:37;;;;;;;15.87;11.90;;;;;;;12.81;68.48;97230.81;5053314;28;20205;-65
2021/10/26 06:52:03;;;;;;;16.67;11.20;;;;;;;12.85;67.91;97241.84;5071440;28;20305;-66
2021/10/26 06:54:30;;;;;;;16.77;12.97;;;;;;;12.70;68.11;97241.66;5064146;28;20258;-65
2021/10/26 06:56:55;;;;;;;19.20;12.83;;;;;;;12.64;68.90;97251.03;5067434;28;20427;-67
2021/10/26 06:59:21;;;;;;;17.30;12.53;;;;;;;12.75;68.52;97258.59;5073037;28;20978;-64
2021/10/26 07:01:46;;;;;;;21.43;11.97;;;;;;;12.81;68.32;97253.66;5072778;28;20178;-66
2021/10/26 07:04:12;;;;;;;18.17;12.40;;;;;;;12.82;68.51;97256.13;5069824;28;20178;-65
2021/10/26 07:06:38;;;;;;;24.30;11.63;;;;;;;13.05;67.92;97264.16;5070839;28;20190;-66
2021/10/26 07:09:03;;;;;;;15.80;11.63;;;;;;;13.18;67.91;97263.66;5070821;28;20702;-64
2021/10/26 07:11:29;;;;;;;16.93;12.13;;;;;;;13.04;68.05;97269.63;5064887;28;20202;-65
2021/10/26 07:13:55;;;;;;;14.80;10.33;;;;;;;13.19;67.84;97269.75;5064477;28;20300;-66
2021/10/26 07:16:20;;;;;;;17.67;10.60;;;;;;;13.24;67.92;97272.69;5051647;28;20178;-64
2021/10/26 07:18:46;;;;;;;17.67;10.47;;;;;;;13.35;67.45;97274.97;5051064;28;20265;-65
2021/10/26 07:21:13;;;;;;;16.83;10.77;;;;;;;13.28;67.53;97278.44;5067247;28;20209;-65
2021/10/26 07:23:39;;;;;;;16.97;10.90;;;;;;;13.21;67.78;97279.09;5065842;28;20194;-67
2021/10/26 07:26:04;;;;;;;15.30;9.70;;;;;;;13.32;67.50;97280.56;5052472;28;20429;-66
2021/10/26 07:28:30;;;;;;;17.77;10.90;;;;;;;13.50;67.21;97279.56;5071045;28;20244;-67
2021/10/26 07:30:55;;;;;;;15.20;10.93;;;;;;;13.53;67.16;97281.88;5070769;28;20260;-68
2021/10/26 07:33:25;;;;;;;15.40;10.37;;;;;;;13.72;67.01;97287.75;5071001;28;20194;-65
2021/10/26 07:35:53;;;;;;;13.27;10.70;;;;;;;13.82;66.82;97285.72;5071537;28;20269;-66
2021/10/26 07:38:32;;;;;;;15.97;10.40;;;;;;;13.80;66.38;97295.59;5062240;28;20432;-66
2021/10/26 07:40:59;;;;;;;13.60;10.37;;;;;;;13.74;66.32;97288.38;5052437;28;20519;-65
2021/10/26 07:43:25;;;;;;;14.50;10.30;;;;;;;13.87;66.21;97287.84;5057250;28;20470;-67
2021/10/26 07:45:51;;;;;;;15.37;10.70;;;;;;;14.12;65.95;97285.91;5071206;28;20506;-66
2021/10/26 07:48:17;;;;;;;15.20;11.57;;;;;;;13.77;65.89;97282.75;5052500;28;20428;-66
2021/10/26 07:50:43;;;;;;;16.07;11.10;;;;;;;14.01;66.05;97283.66;5071796;28;20447;-64
2021/10/26 07:53:09;;;;;;;12.60;11.00;;;;;;;14.32;65.14;97286.28;5071046;28;20275;-65
2021/10/26 07:55:36;;;;;;;23.10;11.33;;;;;;;14.58;65.00;97291.22;5070413;28;20257;-65
2021/10/26 07:58:02;;;;;;;12.60;9.57;;;;;;;14.75;64.25;97291.13;5066129;28;20424;-66
2021/10/26 08:00:27;;;;;;;11.90;10.20;;;;;;;14.90;64.05;97294.63;5062357;28;20449;-66
2021/10/26 08:02:53;;;;;;;12.97;10.60;;;;;;;14.90;63.64;97301.75;5073437;28;20621;-67
2021/10/26 08:05:19;;;;;;;11.90;9.93;;;;;;;15.05;63.45;97299.13;5070911;28;20174;-65
2021/10/26 08:07:44;;;;;;;16.33;9.60;;;;;;;15.00;63.17;97304.97;5070452;28;20188;-66
2021/10/26 08:10:10;;;;;;;20.30;10.83;;;;;;;15.13;62.59;97299.06;5070679;28;20243;-67
2021/10/26 08:12:36;;;;;;;17.40;9.80;;;;;;;15.23;62.55;97306.72;5041085;28;20233;-67
2021/10/26 08:15:02;;;;;;;13.00;9.80;;;;;;;15.31;62.21;97309.28;5070121;28;20206;-67
2021/10/26 08:17:29;;;;;;;20.63;9.40;;;;;;;15.51;61.93;97309.56;5064570;28;20193;-67
2021/10/26 08:19:54;;;;;;;10.80;8.27;;;;;;;15.60;61.33;97309.50;5061815;28;20429;-66
2021/10/26 08:22:22;;;;;;;16.70;9.13;;;;;;;15.66;60.68;97306.13;5054581;28;20173;-67
2021/10/26 08:24:52;;;;;;;11.63;8.30;;;;;;;15.75;60.54;97305.03;5069385;28;20621;-67
2021/10/26 08:27:19;;;;;;;12.77;7.97;;;;;;;15.77;60.08;97310.94;5069143;28;20432;-65
2021/10/26 08:37:40;;;;;;;10.87;9.07;;;;;;;15.71;61.09;97310.84;5073878;28;20507;-66
2021/10/26 08:40:07;;;;;;;15.60;8.83;;;;;;;15.57;60.91;97304.59;5055054;28;20440;-66
2021/10/26 08:42:32;;;;;;;11.63;9.03;;;;;;;15.77;60.92;97300.38;5062126;28;20516;-67
2021/10/26 08:45:00;;;;;;;11.90;9.63;;;;;;;15.80;60.71;97299.22;5074129;28;20496;-67
2021/10/26 08:47:25;;;;;;;13.30;9.50;;;;;;;15.72;60.89;97296.66;5062425;28;20184;-67
2021/10/26 08:49:52;;;;;;;14.53;8.20;;;;;;;15.91;60.70;97300.59;5066286;28;20935;-66
2021/10/26 08:52:19;;;;;;;14.57;8.90;;;;;;;16.01;60.47;97298.47;5056681;28;20204;-66
2021/10/26 08:54:46;;;;;;;11.53;8.40;;;;;;;16.33;59.78;97293.78;5073202;28;20413;-65
2021/10/26 08:57:12;;;;;;;19.03;9.93;;;;;;;16.23;59.75;97293.25;5072206;28;20714;-66
2021/10/26 08:59:37;;;;;;;12.80;8.30;;;;;;;16.28;59.46;97291.69;5072104;28;20523;-65
2021/10/26 09:02:04;;;;;;;11.97;7.53;;;;;;;16.42;59.40;97297.94;5072699;28;20675;-67
2021/10/26 09:04:31;;;;;;;13.50;7.50;;;;;;;16.52;58.71;97296.78;5073622;28;20175;-65
2021/10/26 09:07:04;;;;;;;12.97;6.70;;;;;;;16.62;58.34;97293.84;5039037;28;20417;-66
2021/10/26 09:09:30;;;;;;;15.63;7.80;;;;;;;16.74;57.79;97297.63;5071981;28;20432;-66
2021/10/26 09:17:46;;;;;;;9.47;6.20;;;;;;;17.26;57.07;97300.13;5059832;28;20448;-66
2021/10/26 09:20:21;;;;;;;11.27;5.80;;;;;;;17.39;56.38;97284.31;5054515;28;20819;-66
2021/10/26 09:22:57;;;;;;;9.70;6.20;;;;;;;17.70;54.85;97276.97;5066158;28;20436;-65
2021/10/26 09:25:32;;;;;;;10.33;4.50;;;;;;;17.37;55.38;97280.25;5073509;28;20421;-64
2021/10/26 09:28:13;;;;;;;10.87;6.17;;;;;;;17.02;55.69;97281.00;5072988;28;20419;-65
2021/10/26 09:30:40;;;;;;;7.80;4.90;;;;;;;16.84;56.55;97284.09;5073374;28;20443;-65
2021/10/26 09:33:08;;;;;;;7.63;4.10;;;;;;;17.08;55.30;97284.72;5072294;28;20452;-66
2021/10/26 09:35:35;;;;;;;4.30;3.90;;;;;;;16.65;56.28;97290.84;5070996;28;20472;-66
2021/10/26 09:38:00;;;;;;;12.50;4.20;;;;;;;16.41;57.29;97293.66;5071132;28;20950;-66
2021/10/26 09:40:40;;;;;;;48.13;13.40;;;;;;;16.46;57.87;97297.56;5072214;28;20436;-65
2021/10/26 09:43:07;;;;;;;7.37;3.73;;;;;;;16.12;58.65;97302.47;5059540;28;20177;-65
2021/10/26 09:45:33;;;;;;;11.70;5.30;;;;;;;15.96;58.88;97299.03;5055034;28;20963;-66
2021/10/26 09:48:14;;;;;;;6.67;3.80;;;;;;;16.23;58.47;97303.84;5070871;28;20884;-67
2021/10/26 09:50:40;;;;;;;5.43;4.30;;;;;;;16.56;57.23;97298.06;5071466;28;20444;-67
2021/10/26 09:53:11;;;;;;;7.03;3.83;;;;;;;16.86;56.54;97295.31;5071364;28;20460;-66
2021/10/26 09:55:42;;;;;;;5.00;3.47;;;;;;;17.08;55.57;97304.06;5071905;28;20416;-65
2021/10/26 09:58:15;;;;;;;10.33;3.90;;;;;;;17.25;54.92;97303.78;5072075;28;20428;-67
2021/10/26 10:00:43;;;;;;;6.67;3.77;;;;;;;17.05;55.79;97309.75;5064295;28;20468;-66
2021/10/26 10:03:16;;;;;;;6.20;4.00;;;;;;;16.73;56.70;97315.34;5071797;28;20429;-66
2021/10/26 10:06:04;;;;;;;11.17;3.60;;;;;;;16.34;57.44;97313.94;5070539;28;21076;-66
2021/10/26 10:08:33;;;;;;;4.80;3.50;;;;;;;16.69;55.93;97311.44;5062264;28;20463;-67
2021/10/26 10:11:14;;;;;;;8.80;4.17;;;;;;;17.00;55.22;97309.50;5044516;28;20782;-67
2021/10/26 10:13:44;;;;;;;7.90;4.20;;;;;;;16.27;57.06;97303.28;5062846;28;20474;-67
2021/10/26 10:16:17;;;;;;;8.20;3.80;;;;;;;16.86;56.46;97305.91;5056139;28;20503;-66
2021/10/26 10:18:48;;;;;;;5.47;3.27;;;;;;;16.91;55.41;97300.84;5064698;28;20424;-64
2021/10/26 10:21:17;;;;;;;10.70;4.20;;;;;;;17.23;54.52;97304.00;5055413;28;20436;-66
2021/10/26 10:23:44;;;;;;;3.57;3.20;;;;;;;17.40;53.71;97303.66;5070989;28;20763;-68
2021/10/26 10:26:13;;;;;;;8.13;3.40;;;;;;;16.88;54.65;97295.94;5056716;28;20412;-66
2021/10/26 10:28:44;;;;;;;5.50;3.60;;;;;;;17.14;54.11;97299.81;5064618;28;20417;-66
2021/10/26 10:31:14;;;;;;;6.93;3.70;;;;;;;16.52;55.81;97310.84;5052837;28;20424;-66
2021/10/26 10:33:42;;;;;;;5.80;4.20;;;;;;;17.33;53.54;97299.16;5070727;28;20452;-67
2021/10/26 10:36:09;;;;;;;6.30;4.37;;;;;;;17.88;52.28;97300.28;5054331;28;21858;-67
2021/10/26 10:38:35;;;;;;;7.93;3.67;;;;;;;17.15;54.27;97301.47;5053968;28;20425;-66
2021/10/26 10:41:33;;;;;;;5.77;3.20;;;;;;;17.27;53.91;97305.22;5036463;28;20974;-66
2021/10/26 10:44:08;;;;;;;8.83;4.70;;;;;;;17.11;53.90;97306.31;5043699;28;20421;-67
2021/10/26 10:46:44;;;;;;;8.00;3.83;;;;;;;16.80;55.25;97306.63;5070162;28;20420;-66
2021/10/26 10:49:19;;;;;;;7.40;4.37;;;;;;;16.72;55.55;97304.94;5070681;28;20440;-67
2021/10/26 10:52:09;;;;;;;6.90;3.37;;;;;;;17.57;53.96;97302.38;5072356;28;20424;-66
2021/10/26 10:54:38;;;;;;;7.20;3.90;;;;;;;17.51;54.34;97295.22;5065570;28;20472;-67
2021/10/26 10:57:23;;;;;;;8.43;3.80;;;;;;;17.49;53.92;97298.03;5075476;28;20433;-67
2021/10/26 10:59:53;;;;;;;6.13;3.67;;;;;;;17.56;53.47;97291.97;5071397;28;20424;-68
2021/10/26 11:02:29;;;;;;;6.33;3.77;;;;;;;17.84;53.11;97288.44;5070812;28;20779;-66
2021/10/26 11:04:55;;;;;;;5.90;3.63;;;;;;;18.45;51.67;97285.00;5070372;28;20474;-68
2021/10/26 11:07:43;;;;;;;8.50;3.80;;;;;;;17.65;53.74;97286.31;5067270;28;20417;-66
2021/10/26 11:10:13;;;;;;;4.37;3.50;;;;;;;17.79;52.73;97289.03;5075960;28;20450;-67
2021/10/26 11:12:42;;;;;;;6.43;3.17;;;;;;;18.05;52.33;97292.84;5062769;28;20947;-66
2021/10/26 11:15:14;;;;;;;6.50;3.87;;;;;;;18.74;50.78;97291.00;5057626;28;21098;-67
2021/10/26 11:17:43;;;;;;;11.53;4.50;;;;;;;18.83;49.30;97281.81;5065263;28;20455;-66
2021/10/26 11:20:36;;;;;;;9.30;3.80;;;;;;;18.95;48.24;97287.38;5070962;28;20501;-67
2021/10/26 11:23:08;;;;;;;8.57;3.90;;;;;;;18.64;49.99;97293.22;5070865;28;20417;-65
2021/10/26 11:25:39;;;;;;;4.50;2.50;;;;;;;18.25;49.98;97280.50;5071311;28;20831;-66
2021/10/26 11:28:17;;;;;;;4.67;2.20;;;;;;;17.53;51.48;97287.88;5070983;28;20433;-63
2021/10/26 11:30:43;;;;;;;2.80;1.53;;;;;;;17.24;52.17;97283.59;5068928;28;20908;-66
2021/10/26 11:33:15;;;;;;;15.17;5.00;;;;;;;17.64;51.54;97283.88;5069730;28;20541;-65
2021/10/26 11:35:52;;;;;;;7.17;2.50;;;;;;;17.59;51.61;97276.50;5069779;28;20213;-67
2021/10/26 11:38:21;;;;;;;3.53;2.00;;;;;;;17.50;51.56;97282.97;5071025;28;20459;-65
2021/10/26 11:41:00;;;;;;;5.10;1.93;;;;;;;17.83;50.71;97282.31;5070579;28;20448;-64